createdAt,value
2022-10-20T00:01:42.061Z,100.00
2022-10-20T00:04:10.076Z,100.00
2022-10-20T00:06:38.013Z,100.00
2022-10-20T00:09:06.308Z,100.00
2022-10-20T00:11:35.807Z,100.00
2022-10-20T00:14:04.470Z,100.00
2022-10-20T00:16:35.995Z,100.00
2022-10-20T00:19:04.063Z,100.00
2022-10-20T00:21:33.195Z,100.00
2022-10-20T00:24:02.393Z,100.00
2022-10-20T00:26:31.763Z,100.00
2022-10-20T00:29:02.822Z,100.00
2022-10-20T00:31:31.255Z,100.00
2022-10-20T00:33:59.349Z,100.00
2022-10-20T00:36:27.346Z,100.00
2022-10-20T00:38:59.028Z,100.00
2022-10-20T00:41:28.137Z,100.00
2022-10-20T00:43:58.724Z,100.00
2022-10-20T00:46:33.663Z,100.00
2022-10-20T00:49:09.407Z,100.00
2022-10-20T00:51:37.347Z,100.00
2022-10-20T00:54:10.016Z,100.00
2022-10-20T00:56:40.885Z,100.00
2022-10-20T00:59:09.678Z,100.00
2022-10-20T01:01:40.250Z,100.00
2022-10-20T01:04:08.762Z,100.00
2022-10-20T01:06:37.334Z,100.00
2022-10-20T01:09:06.299Z,100.00
2022-10-20T01:11:41.884Z,100.00
2022-10-20T01:14:22.482Z,100.00
2022-10-20T01:17:02.525Z,100.00
2022-10-20T01:19:59.279Z,100.00
2022-10-20T01:23:04.166Z,100.00
2022-10-20T01:25:51.696Z,100.00
2022-10-20T01:28:25.711Z,100.00
2022-10-20T01:30:59.721Z,100.00
2022-10-20T01:33:36.881Z,100.00
2022-10-20T01:36:14.708Z,100.00
2022-10-20T01:38:50.172Z,100.00
2022-10-20T01:41:23.089Z,100.00
2022-10-20T01:43:53.707Z,100.00
2022-10-20T01:46:25.006Z,100.00
2022-10-20T01:48:54.144Z,100.00
2022-10-20T01:51:22.076Z,100.00
2022-10-20T01:53:49.991Z,100.00
2022-10-20T01:56:21.611Z,100.00
2022-10-20T01:59:09.142Z,100.00
2022-10-20T02:01:50.024Z,100.00
2022-10-20T02:04:24.182Z,100.00
2022-10-20T02:06:58.718Z,100.00
2022-10-20T02:09:35.191Z,100.00
2022-10-20T02:12:08.091Z,100.00
2022-10-20T02:14:38.588Z,100.00
2022-10-20T02:17:09.766Z,100.00
2022-10-20T02:19:40.808Z,100.00
2022-10-20T02:22:10.084Z,100.00
2022-10-20T02:24:41.141Z,100.00
2022-10-20T02:27:13.500Z,100.00
2022-10-20T02:29:47.801Z,100.00
2022-10-20T02:32:17.456Z,100.00
2022-10-20T02:34:46.478Z,100.00
2022-10-20T02:37:14.549Z,100.00
2022-10-20T02:39:42.467Z,100.00
2022-10-20T02:42:12.329Z,100.00
2022-10-20T02:44:40.231Z,100.00
2022-10-20T02:47:09.628Z,100.00
2022-10-20T02:49:37.541Z,100.00
2022-10-20T02:52:05.560Z,100.00
2022-10-20T02:54:33.971Z,100.00
2022-10-20T02:57:01.913Z,100.00
2022-10-20T02:59:30.007Z,100.00
2022-10-20T03:02:03.907Z,100.00
2022-10-20T03:04:33.263Z,100.00
2022-10-20T03:07:01.190Z,100.00
2022-10-20T03:09:29.297Z,100.00
2022-10-20T03:11:57.401Z,100.00
2022-10-20T03:14:25.300Z,100.00
2022-10-20T03:16:53.277Z,100.00
2022-10-20T03:19:21.321Z,100.00
2022-10-20T03:21:50.680Z,100.00
2022-10-20T03:24:18.765Z,100.00
2022-10-20T03:26:46.717Z,100.00
2022-10-20T03:29:14.673Z,100.00
2022-10-20T03:31:42.704Z,100.00
2022-10-20T03:34:10.671Z,100.00
2022-10-20T03:36:38.677Z,100.00
2022-10-20T03:39:08.014Z,100.00
2022-10-20T03:41:35.928Z,100.00
2022-10-20T03:44:06.770Z,100.00
2022-10-20T03:46:37.518Z,100.00
2022-10-20T03:49:05.554Z,100.00
2022-10-20T03:51:33.765Z,100.00
2022-10-20T03:54:01.736Z,100.00
2022-10-20T03:56:31.021Z,100.00
2022-10-20T03:58:59.007Z,100.00
2022-10-20T04:01:31.974Z,100.00
2022-10-20T04:03:59.924Z,100.00
2022-10-20T04:06:28.001Z,100.00
2022-10-20T04:08:56.081Z,100.00
2022-10-20T04:11:24.145Z,100.00
2022-10-20T04:13:53.476Z,100.00
2022-10-20T04:16:21.423Z,100.00
2022-10-20T04:18:49.351Z,100.00
2022-10-20T04:21:17.253Z,100.00
2022-10-20T04:23:45.665Z,100.00
2022-10-20T04:26:15.185Z,100.00
2022-10-20T04:28:43.818Z,100.00
2022-10-20T04:31:13.108Z,100.00
2022-10-20T04:33:41.187Z,100.00
2022-10-20T04:36:13.150Z,100.00
2022-10-20T04:38:41.220Z,100.00
2022-10-20T04:41:09.133Z,100.00
2022-10-20T04:43:37.032Z,100.00
2022-10-20T04:46:08.876Z,100.00
2022-10-20T04:48:38.940Z,100.00
2022-10-20T04:51:09.047Z,100.00
2022-10-20T04:53:37.426Z,100.00
2022-10-20T04:56:06.473Z,100.00
2022-10-20T04:58:36.138Z,100.00
2022-10-20T05:01:07.093Z,100.00
2022-10-20T05:03:35.403Z,100.00
2022-10-20T05:06:12.907Z,100.00
2022-10-20T05:08:42.281Z,100.00
2022-10-20T05:11:11.185Z,100.00
2022-10-20T05:13:39.375Z,100.00
2022-10-20T05:16:08.153Z,100.00
2022-10-20T05:18:36.711Z,100.00
2022-10-20T05:21:09.419Z,100.00
2022-10-20T05:23:39.467Z,100.00
2022-10-20T05:26:10.300Z,100.00
2022-10-20T05:28:38.192Z,100.00
2022-10-20T05:31:08.333Z,100.00
2022-10-20T05:33:37.415Z,100.00
2022-10-20T05:36:09.729Z,100.00
2022-10-20T05:38:40.784Z,100.00
2022-10-20T05:41:10.556Z,100.00
2022-10-20T05:43:38.899Z,100.00
2022-10-20T05:46:07.708Z,100.00
2022-10-20T05:48:42.790Z,100.00
2022-10-20T05:51:14.760Z,100.00
2022-10-20T05:53:47.049Z,100.00
2022-10-20T05:56:17.414Z,100.00
2022-10-20T05:58:47.342Z,100.00
2022-10-20T06:01:19.238Z,100.00
2022-10-20T06:03:50.178Z,100.00
2022-10-20T06:06:22.847Z,100.00
2022-10-20T06:08:53.672Z,100.00
2022-10-20T06:11:22.455Z,100.00
2022-10-20T06:13:53.379Z,100.00
2022-10-20T06:16:23.307Z,100.00
2022-10-20T06:18:51.868Z,100.00
2022-10-20T06:21:21.427Z,100.00
2022-10-20T06:23:50.177Z,100.00
2022-10-20T06:26:22.308Z,100.00
2022-10-20T06:28:52.753Z,100.00
2022-10-20T06:31:22.417Z,100.00
2022-10-20T06:33:50.930Z,100.00
2022-10-20T06:36:19.776Z,100.00
2022-10-20T06:38:48.032Z,100.00
2022-10-20T06:41:17.972Z,100.00
2022-10-20T06:43:47.280Z,100.00
2022-10-20T06:46:17.538Z,100.00
2022-10-20T06:48:46.387Z,100.00
2022-10-20T06:51:16.989Z,100.00
2022-10-20T06:53:46.766Z,100.00
2022-10-20T06:56:16.484Z,100.00
2022-10-20T06:58:46.443Z,100.00
2022-10-20T07:01:17.416Z,100.00
2022-10-20T07:03:47.364Z,100.00
2022-10-20T07:06:17.387Z,100.00
2022-10-20T07:08:45.471Z,100.00
2022-10-20T07:11:16.329Z,100.00
2022-10-20T07:13:44.987Z,100.00
2022-10-20T07:16:16.468Z,100.00
2022-10-20T07:21:15.253Z,100.00
2022-10-20T07:23:43.811Z,100.00
2022-10-20T07:26:14.233Z,100.00
2022-10-20T07:28:44.501Z,100.00
2022-10-20T07:31:16.509Z,100.00
2022-10-20T07:33:45.919Z,100.00
2022-10-20T07:36:23.848Z,100.00
2022-10-20T07:38:53.365Z,100.00
2022-10-20T07:41:21.776Z,100.00
2022-10-20T07:43:49.850Z,100.00
2022-10-20T07:46:19.414Z,100.00
2022-10-20T07:48:47.322Z,100.00
2022-10-20T07:51:18.165Z,100.00
2022-10-20T07:53:47.407Z,100.00
2022-10-20T07:56:15.887Z,100.00
2022-10-20T07:58:44.740Z,100.00
2022-10-20T08:01:12.827Z,100.00
2022-10-20T08:03:42.116Z,100.00
2022-10-20T08:06:10.054Z,100.00
2022-10-20T08:08:38.149Z,100.00
2022-10-20T08:11:06.500Z,100.00
2022-10-20T08:13:34.653Z,100.00
2022-10-20T08:16:12.778Z,100.00
2022-10-20T08:21:34.559Z,100.00
2022-10-20T08:24:03.974Z,100.00
2022-10-20T08:26:31.958Z,100.00
2022-10-20T08:28:59.866Z,100.00
2022-10-20T08:31:27.884Z,100.00
2022-10-20T08:33:57.858Z,100.00
2022-10-20T08:36:25.752Z,100.00
2022-10-20T08:38:54.666Z,100.00
2022-10-20T08:41:27.019Z,100.00
2022-10-20T08:43:59.044Z,100.00
2022-10-20T08:46:32.414Z,100.00
2022-10-20T08:49:02.896Z,100.00
2022-10-20T08:51:34.398Z,100.00
2022-10-20T08:54:03.767Z,100.00
2022-10-20T08:56:34.388Z,100.00
2022-10-20T08:59:04.345Z,100.00
2022-10-20T09:01:36.234Z,100.00
2022-10-20T09:04:21.440Z,100.00
2022-10-20T09:06:53.654Z,100.00
2022-10-20T09:09:23.282Z,100.00
2022-10-20T09:11:52.400Z,100.00
2022-10-20T09:14:21.105Z,100.00
2022-10-20T09:16:59.629Z,100.00
2022-10-20T09:19:30.369Z,100.00
2022-10-20T09:22:07.073Z,100.00
2022-10-20T09:24:38.098Z,99.76
2022-10-20T09:27:25.187Z,90.87
2022-10-20T09:29:53.085Z,88.40
2022-10-20T09:32:48.359Z,83.19
2022-10-20T09:35:25.138Z,80.32
2022-10-20T09:38:18.130Z,81.22
2022-10-20T09:40:55.090Z,81.08
2022-10-20T09:43:23.237Z,77.37
2022-10-20T09:45:54.697Z,77.25
2022-10-20T09:48:25.801Z,77.67
2022-10-20T09:50:58.652Z,76.93
2022-10-20T09:53:29.445Z,76.97
2022-10-20T09:55:57.744Z,77.85
2022-10-20T09:58:29.154Z,92.41
2022-10-20T10:01:00.446Z,100.00
2022-10-20T10:03:29.189Z,96.36
2022-10-20T10:05:59.704Z,81.75
2022-10-20T10:08:30.781Z,77.41
2022-10-20T10:11:01.869Z,73.29
2022-10-20T10:13:32.000Z,72.73
2022-10-20T10:16:02.624Z,71.81
2022-10-20T10:18:30.758Z,71.03
2022-10-20T10:21:02.910Z,71.05
2022-10-20T10:23:33.440Z,69.86
2022-10-20T10:26:03.106Z,70.73
2022-10-20T10:28:37.943Z,71.18
2022-10-20T10:31:22.971Z,69.98
2022-10-20T10:33:53.780Z,68.90
2022-10-20T10:36:35.640Z,70.02
2022-10-20T10:39:05.368Z,69.13
2022-10-20T10:41:54.848Z,69.12
2022-10-20T10:44:35.361Z,68.59
2022-10-20T10:47:19.856Z,68.65
2022-10-20T10:49:58.882Z,67.81
2022-10-20T10:52:42.973Z,69.05
2022-10-20T10:55:43.731Z,69.16
2022-10-20T10:58:20.318Z,67.61
2022-10-20T11:00:59.467Z,66.40
2022-10-20T11:03:46.786Z,66.26
2022-10-20T11:06:23.291Z,65.53
2022-10-20T11:09:04.740Z,64.37
2022-10-20T11:11:44.911Z,64.86
2022-10-20T11:14:24.499Z,64.26
2022-10-20T11:17:06.384Z,68.56
2022-10-20T11:19:58.862Z,64.68
2022-10-20T11:22:38.666Z,67.72
2022-10-20T11:25:17.975Z,69.70
2022-10-20T11:27:45.871Z,69.84
2022-10-20T11:30:18.383Z,70.04
2022-10-20T11:32:52.946Z,67.26
2022-10-20T11:35:30.211Z,66.49
2022-10-20T11:38:13.585Z,64.04
2022-10-20T11:40:46.049Z,63.76
2022-10-20T11:43:21.323Z,63.09
2022-10-20T11:45:54.660Z,65.61
2022-10-20T11:48:27.460Z,62.05
2022-10-20T11:51:17.085Z,59.46
2022-10-20T11:54:04.690Z,56.97
2022-10-20T11:56:57.999Z,57.17
2022-10-20T12:00:03.644Z,57.75
2022-10-20T12:03:25.240Z,56.02
2022-10-20T12:06:11.471Z,57.88
2022-10-20T12:09:14.050Z,59.17
2022-10-20T12:11:50.132Z,57.67
2022-10-20T12:14:25.493Z,56.71
2022-10-20T12:17:13.657Z,55.70
2022-10-20T12:19:41.732Z,54.32
2022-10-20T12:22:41.252Z,54.89
2022-10-20T12:25:39.385Z,57.56
2022-10-20T12:28:34.427Z,59.68
2022-10-20T12:31:05.889Z,59.08
2022-10-20T12:33:43.487Z,60.82
2022-10-20T12:36:31.336Z,61.35
2022-10-20T12:39:16.034Z,54.18
2022-10-20T12:41:55.428Z,53.04
2022-10-20T12:44:24.790Z,54.21
2022-10-20T12:46:59.891Z,56.54
2022-10-20T12:49:32.599Z,58.68
2022-10-20T12:52:02.494Z,57.15
2022-10-20T12:54:35.791Z,59.32
2022-10-20T12:57:06.772Z,58.79
2022-10-20T12:59:40.362Z,60.22
2022-10-20T13:02:34.602Z,60.41
2022-10-20T13:05:24.272Z,56.08
2022-10-20T13:08:04.650Z,57.91
2022-10-20T13:10:36.012Z,56.90
2022-10-20T13:13:44.213Z,56.34
2022-10-20T13:16:18.779Z,54.82
2022-10-20T13:18:53.576Z,55.31
2022-10-20T13:21:31.865Z,54.57
2022-10-20T13:24:05.365Z,54.31
2022-10-20T13:26:38.996Z,54.85
2022-10-20T13:29:14.400Z,55.81
2022-10-20T13:31:48.877Z,55.96
2022-10-20T13:34:25.972Z,55.96
2022-10-20T13:37:04.906Z,55.79
2022-10-20T13:39:39.900Z,56.65
2022-10-20T13:42:20.474Z,57.48
2022-10-20T13:44:57.756Z,61.06
2022-10-20T13:47:47.542Z,56.35
2022-10-20T13:52:55.991Z,62.11
2022-10-20T13:55:29.381Z,57.70
2022-10-20T13:57:59.262Z,56.35
2022-10-20T14:00:29.507Z,55.21
2022-10-20T14:03:02.790Z,55.29
2022-10-20T14:05:38.178Z,55.56
2022-10-20T14:08:10.237Z,54.50
2022-10-20T14:10:44.815Z,54.80
2022-10-20T14:13:17.755Z,55.05
2022-10-20T14:15:48.561Z,55.10
2022-10-20T14:18:24.607Z,55.34
2022-10-20T14:21:00.273Z,55.58
2022-10-20T14:23:30.550Z,55.94
2022-10-20T14:25:59.752Z,55.76
2022-10-20T14:28:32.714Z,55.81
2022-10-20T14:31:01.447Z,55.91
2022-10-20T14:33:30.932Z,56.18
2022-10-20T14:36:02.639Z,56.89
2022-10-20T14:38:35.549Z,56.95
2022-10-20T14:41:03.679Z,57.69
2022-10-20T14:43:39.212Z,58.06
2022-10-20T14:46:08.907Z,57.84
2022-10-20T14:48:39.617Z,58.42
2022-10-20T14:51:39.728Z,57.76
2022-10-20T14:54:26.508Z,59.24
2022-10-20T14:56:56.374Z,59.51
2022-10-20T14:59:27.089Z,59.10
2022-10-20T15:02:02.330Z,59.16
2022-10-20T15:04:36.116Z,59.57
2022-10-20T15:07:12.440Z,60.22
2022-10-20T15:09:43.824Z,61.12
2022-10-20T15:12:17.681Z,61.55
2022-10-20T15:14:48.669Z,61.43
2022-10-20T15:17:38.180Z,61.21
2022-10-20T15:20:33.272Z,61.09
2022-10-20T15:23:04.471Z,61.91
2022-10-20T15:25:37.250Z,62.12
2022-10-20T15:28:05.369Z,62.16
2022-10-20T15:30:33.466Z,63.93
2022-10-20T15:33:01.413Z,64.30
2022-10-20T15:35:31.050Z,64.71
2022-10-20T15:38:03.206Z,65.36
2022-10-20T15:40:31.176Z,65.73
2022-10-20T15:42:59.053Z,65.61
2022-10-20T15:45:28.969Z,65.26
2022-10-20T15:47:56.924Z,63.32
2022-10-20T15:50:25.063Z,63.02
2022-10-20T15:52:54.289Z,62.92
2022-10-20T15:55:28.279Z,63.23
2022-10-20T15:57:56.566Z,63.02
2022-10-20T16:00:29.168Z,62.62
2022-10-20T16:02:59.983Z,62.84
2022-10-20T16:05:30.973Z,62.71
2022-10-20T16:08:01.436Z,62.83
2022-10-20T16:10:30.753Z,62.86
2022-10-20T16:12:59.050Z,62.85
2022-10-20T16:15:30.246Z,62.44
2022-10-20T16:17:59.639Z,62.81
2022-10-20T16:20:27.532Z,64.88
2022-10-20T16:22:55.601Z,65.03
2022-10-20T16:25:23.523Z,65.05
2022-10-20T16:27:53.508Z,66.40
2022-10-20T16:30:21.453Z,66.34
2022-10-20T16:32:49.380Z,65.67
2022-10-20T16:35:17.670Z,64.84
2022-10-20T16:37:45.603Z,65.46
2022-10-20T16:40:13.555Z,65.54
2022-10-20T16:42:41.485Z,62.75
2022-10-20T16:45:11.261Z,61.94
2022-10-20T16:47:39.938Z,61.37
2022-10-20T16:50:08.667Z,60.69
2022-10-20T16:52:36.618Z,60.82
2022-10-20T16:55:04.933Z,59.33
2022-10-20T16:57:38.579Z,59.72
2022-10-20T17:00:09.241Z,58.79
2022-10-20T17:02:40.339Z,58.95
2022-10-20T17:05:09.590Z,59.49
2022-10-20T17:07:38.688Z,58.60
2022-10-20T17:10:08.472Z,58.88
2022-10-20T17:12:36.385Z,58.51
2022-10-20T17:15:07.079Z,58.72
2022-10-20T17:17:35.310Z,59.07
2022-10-20T17:20:05.403Z,58.82
2022-10-20T17:22:33.302Z,59.02
2022-10-20T17:25:01.229Z,58.94
2022-10-20T17:27:29.129Z,59.18
2022-10-20T17:29:57.019Z,59.54
2022-10-20T17:32:24.942Z,61.35
2022-10-20T17:34:52.862Z,63.41
2022-10-20T17:37:22.129Z,65.22
2022-10-20T17:39:50.049Z,67.01
2022-10-20T17:42:18.003Z,67.30
2022-10-20T17:44:45.896Z,67.51
2022-10-20T17:47:13.775Z,64.81
2022-10-20T17:49:41.852Z,63.06
2022-10-20T17:52:09.731Z,60.81
2022-10-20T17:54:39.028Z,60.46
2022-10-20T17:57:06.949Z,59.42
2022-10-20T17:59:42.437Z,59.95
2022-10-20T18:02:23.742Z,61.04
2022-10-20T18:04:51.761Z,61.74
2022-10-20T18:07:19.832Z,61.19
2022-10-20T18:09:49.231Z,61.09
2022-10-20T18:12:17.578Z,61.13
2022-10-20T18:14:45.568Z,61.66
2022-10-20T18:17:13.912Z,62.39
2022-10-20T18:19:42.078Z,62.17
2022-10-20T18:22:10.188Z,62.76
2022-10-20T18:24:38.292Z,62.75
2022-10-20T18:27:07.565Z,63.14
2022-10-20T18:29:35.606Z,63.04
2022-10-20T18:32:06.781Z,63.16
2022-10-20T18:34:34.973Z,64.49
2022-10-20T18:37:03.627Z,65.92
2022-10-20T18:39:32.821Z,67.74
2022-10-20T18:42:00.934Z,65.38
2022-10-20T18:44:30.754Z,64.97
2022-10-20T18:46:59.489Z,64.57
2022-10-20T18:49:27.946Z,64.05
2022-10-20T18:51:55.978Z,63.55
2022-10-20T18:54:24.363Z,63.03
2022-10-20T18:56:52.525Z,63.47
2022-10-20T18:59:20.467Z,63.36
2022-10-20T19:01:49.984Z,63.46
2022-10-20T19:04:18.193Z,63.88
2022-10-20T19:06:47.247Z,65.37
2022-10-20T19:09:17.303Z,65.79
2022-10-20T19:11:46.664Z,66.19
2022-10-20T19:14:15.368Z,66.74
2022-10-20T19:16:46.278Z,67.74
2022-10-20T19:19:15.900Z,69.21
2022-10-20T19:21:44.051Z,72.93
2022-10-20T19:24:16.388Z,79.03
2022-10-20T19:26:56.910Z,79.74
2022-10-20T19:29:30.661Z,79.17
2022-10-20T19:32:02.682Z,77.18
2022-10-20T19:34:35.295Z,78.82
2022-10-20T19:37:04.083Z,79.03
2022-10-20T19:39:34.498Z,79.35
2022-10-20T19:42:03.808Z,84.50
2022-10-20T19:44:32.295Z,90.99
2022-10-20T19:47:00.782Z,87.84
2022-10-20T19:49:29.010Z,90.08
2022-10-20T19:51:58.331Z,90.11
2022-10-20T19:54:26.368Z,91.37
2022-10-20T19:56:54.350Z,92.63
2022-10-20T19:59:22.353Z,97.28
2022-10-20T20:01:52.347Z,94.95
2022-10-20T20:04:20.591Z,93.48
2022-10-20T20:06:48.795Z,93.37
2022-10-20T20:09:21.069Z,94.84
2022-10-20T20:11:49.143Z,92.79
2022-10-20T20:14:18.859Z,96.27
2022-10-20T20:16:47.868Z,98.19
2022-10-20T20:19:16.869Z,96.29
2022-10-20T20:21:45.949Z,100.00
2022-10-20T20:24:14.981Z,99.15
2022-10-20T20:26:45.058Z,96.86
2022-10-20T20:29:15.302Z,95.12
2022-10-20T20:31:43.283Z,93.66
2022-10-20T20:34:11.371Z,97.03
2022-10-20T20:36:40.440Z,98.70
2022-10-20T20:39:11.135Z,100.00
2022-10-20T20:41:39.092Z,100.00
2022-10-20T20:44:08.837Z,100.00
2022-10-20T20:46:36.941Z,100.00
2022-10-20T20:49:05.119Z,100.00
2022-10-20T20:51:34.095Z,100.00
2022-10-20T20:54:03.050Z,100.00
2022-10-20T20:56:31.463Z,100.00
2022-10-20T20:58:59.445Z,100.00
2022-10-20T21:01:31.592Z,100.00
2022-10-20T21:04:01.134Z,100.00
2022-10-20T21:06:38.008Z,100.00
2022-10-20T21:09:12.897Z,100.00
2022-10-20T21:11:42.911Z,100.00
2022-10-20T21:14:10.935Z,100.00
2022-10-20T21:16:40.385Z,100.00
2022-10-20T21:19:10.289Z,100.00
2022-10-20T21:21:40.260Z,100.00
2022-10-20T21:24:08.361Z,100.00
2022-10-20T21:26:36.252Z,100.00
2022-10-20T21:29:04.731Z,100.00
2022-10-20T21:31:32.954Z,100.00
2022-10-20T21:34:04.857Z,100.00
2022-10-20T21:36:35.794Z,100.00
2022-10-20T21:39:05.561Z,100.00
2022-10-20T21:41:37.342Z,100.00
2022-10-20T21:44:08.127Z,100.00
2022-10-20T21:46:39.219Z,100.00
2022-10-20T21:49:11.831Z,100.00
2022-10-20T21:51:42.006Z,100.00
2022-10-20T21:54:12.648Z,100.00
2022-10-20T21:56:43.291Z,100.00
2022-10-20T21:59:17.380Z,100.00
2022-10-20T22:01:45.639Z,100.00
2022-10-20T22:04:15.561Z,100.00
2022-10-20T22:06:43.682Z,100.00
2022-10-20T22:09:13.060Z,100.00
2022-10-20T22:11:43.526Z,100.00
2022-10-20T22:14:11.700Z,100.00
2022-10-20T22:16:41.906Z,100.00
2022-10-20T22:19:14.177Z,100.00
2022-10-20T22:21:45.877Z,100.00
2022-10-20T22:24:15.056Z,100.00
2022-10-20T22:26:43.676Z,100.00
2022-10-20T22:29:12.014Z,100.00
2022-10-20T22:31:41.398Z,100.00
2022-10-20T22:34:10.211Z,100.00
2022-10-20T22:36:39.408Z,100.00
2022-10-20T22:41:40.705Z,100.00
2022-10-20T22:44:08.973Z,100.00
2022-10-20T22:46:36.907Z,100.00
2022-10-20T22:49:04.940Z,100.00
2022-10-20T22:51:32.849Z,100.00
2022-10-20T22:54:03.801Z,100.00
2022-10-20T22:56:33.140Z,100.00
2022-10-20T22:59:01.236Z,100.00
2022-10-20T23:01:29.435Z,100.00
2022-10-20T23:03:57.497Z,100.00
2022-10-20T23:06:27.984Z,100.00
2022-10-20T23:08:57.605Z,100.00
2022-10-20T23:11:25.563Z,100.00
2022-10-20T23:13:54.923Z,100.00
2022-10-20T23:18:58.153Z,100.00
2022-10-20T23:21:26.540Z,100.00
2022-10-20T23:23:54.628Z,100.00
2022-10-20T23:26:26.673Z,100.00
2022-10-20T23:28:56.008Z,100.00
2022-10-20T23:31:24.440Z,100.00
2022-10-20T23:33:56.189Z,100.00
2022-10-20T23:36:24.880Z,100.00
2022-10-20T23:38:52.832Z,100.00
2022-10-20T23:41:21.079Z,100.00
2022-10-20T23:43:49.041Z,100.00
2022-10-20T23:46:18.355Z,100.00
2022-10-20T23:48:46.304Z,100.00
2022-10-20T23:51:14.252Z,100.00
2022-10-20T23:53:42.426Z,100.00
2022-10-20T23:56:10.327Z,100.00
2022-10-20T23:58:38.278Z,100.00
